createdAt,value
2022-08-12T00:02:03.656Z,43.19
2022-08-12T00:04:13.289Z,43.67
2022-08-12T00:06:39.221Z,43.93
2022-08-12T00:09:05.159Z,43.53
2022-08-12T00:11:31.149Z,44.25
2022-08-12T00:13:57.118Z,43.42
2022-08-12T00:16:23.087Z,43.55
2022-08-12T00:18:49.076Z,44.08
2022-08-12T00:21:15.016Z,43.64
2022-08-12T00:23:40.970Z,44.00
2022-08-12T00:26:23.648Z,44.23
2022-08-12T00:28:50.267Z,44.63
2022-08-12T00:31:16.241Z,44.05
2022-08-12T00:33:52.419Z,44.30
2022-08-12T00:36:36.265Z,43.64
2022-08-12T00:39:02.379Z,43.62
2022-08-12T00:41:28.387Z,43.93
2022-08-12T00:43:56.138Z,44.07
2022-08-12T00:46:22.321Z,44.28
2022-08-12T00:48:48.306Z,44.99
2022-08-12T00:51:14.245Z,45.25
2022-08-12T00:53:40.188Z,44.45
2022-08-12T00:56:06.175Z,44.25
2022-08-12T00:58:32.131Z,44.64
2022-08-12T01:00:58.128Z,45.08
2022-08-12T01:03:24.184Z,44.59
2022-08-12T01:05:50.132Z,45.48
2022-08-12T01:08:16.068Z,45.05
2022-08-12T01:10:42.065Z,44.48
2022-08-12T01:13:19.281Z,43.75
2022-08-12T01:15:46.332Z,44.07
2022-08-12T01:18:12.262Z,43.11
2022-08-12T01:20:38.213Z,43.27
2022-08-12T01:23:04.208Z,44.27
2022-08-12T01:25:30.152Z,44.25
2022-08-12T01:27:56.099Z,44.63
2022-08-12T01:30:22.111Z,44.94
2022-08-12T01:32:48.384Z,44.58
2022-08-12T01:35:14.314Z,44.67
2022-08-12T01:37:40.289Z,44.40
2022-08-12T01:40:31.677Z,44.23
2022-08-12T01:42:52.203Z,44.95
2022-08-12T01:45:18.146Z,44.83
2022-08-12T01:47:44.106Z,45.55
2022-08-12T01:50:10.092Z,44.61
2022-08-12T01:52:36.135Z,45.23
2022-08-12T01:55:02.120Z,45.49
2022-08-12T01:57:58.563Z,44.43
2022-08-12T02:00:14.055Z,44.48
2022-08-12T02:02:40.161Z,45.46
2022-08-12T02:05:06.165Z,45.35
2022-08-12T02:07:32.103Z,44.42
2022-08-12T02:09:58.101Z,44.75
2022-08-12T02:12:27.609Z,44.42
2022-08-12T02:14:54.682Z,44.93
2022-08-12T02:17:20.702Z,45.03
2022-08-12T02:20:06.648Z,44.80
2022-08-12T02:22:32.662Z,45.26
2022-08-12T02:24:58.590Z,45.14
2022-08-12T02:27:24.524Z,45.24
2022-08-12T02:29:50.583Z,44.64
2022-08-12T02:32:16.516Z,44.91
2022-08-12T02:34:42.455Z,44.71
2022-08-12T02:37:08.440Z,44.91
2022-08-12T02:39:34.438Z,44.95
2022-08-12T02:42:00.436Z,45.02
2022-08-12T02:44:26.437Z,44.78
2022-08-12T02:46:52.370Z,44.68
2022-08-12T02:49:18.299Z,45.08
2022-08-12T02:51:44.317Z,45.42
2022-08-12T02:54:10.281Z,45.50
2022-08-12T02:56:36.246Z,45.14
2022-08-12T02:59:02.259Z,45.35
2022-08-12T03:01:28.277Z,45.26
2022-08-12T03:03:54.270Z,45.27
2022-08-12T03:06:20.241Z,46.45
2022-08-12T03:08:53.819Z,45.52
2022-08-12T03:11:19.935Z,45.36
2022-08-12T03:13:45.917Z,46.19
2022-08-12T03:16:11.890Z,45.98
2022-08-12T03:18:37.846Z,46.10
2022-08-12T03:21:03.830Z,45.69
2022-08-12T03:23:31.063Z,46.25
2022-08-12T03:25:57.442Z,47.18
2022-08-12T03:28:24.067Z,46.41
2022-08-12T03:30:54.765Z,47.12
2022-08-12T03:33:22.513Z,46.53
2022-08-12T03:35:48.507Z,46.87
2022-08-12T03:38:14.484Z,46.23
2022-08-12T03:40:40.446Z,46.45
2022-08-12T03:43:06.453Z,46.50
2022-08-12T03:45:50.124Z,46.30
2022-08-12T03:48:19.516Z,46.58
2022-08-12T03:50:45.549Z,45.69
2022-08-12T03:53:11.499Z,46.06
2022-08-12T03:55:37.481Z,46.25
2022-08-12T03:58:03.428Z,46.30
2022-08-12T04:00:29.370Z,47.00
2022-08-12T04:02:55.376Z,46.66
2022-08-12T04:05:21.482Z,46.88
2022-08-12T04:07:56.335Z,47.07
2022-08-12T04:10:24.614Z,47.05
2022-08-12T04:12:51.697Z,46.82
2022-08-12T04:15:17.632Z,47.49
2022-08-12T04:18:06.365Z,48.15
2022-08-12T04:20:29.517Z,47.72
2022-08-12T04:22:55.513Z,47.26
2022-08-12T04:25:21.450Z,46.86
2022-08-12T04:27:47.400Z,46.90
2022-08-12T04:30:29.476Z,48.01
2022-08-12T04:32:59.002Z,47.27
2022-08-12T04:35:24.987Z,47.71
2022-08-12T04:37:58.607Z,48.12
2022-08-12T04:40:28.037Z,47.04
2022-08-12T04:42:54.759Z,46.21
2022-08-12T04:45:22.515Z,46.32
2022-08-12T04:47:48.804Z,46.89
2022-08-12T04:50:34.831Z,46.93
2022-08-12T04:53:00.719Z,46.25
2022-08-12T04:55:27.505Z,45.70
2022-08-12T04:57:53.447Z,46.38
2022-08-12T05:00:19.456Z,45.56
2022-08-12T05:02:45.481Z,45.87
2022-08-12T05:05:11.482Z,46.72
2022-08-12T05:07:45.796Z,46.74
2022-08-12T05:10:21.019Z,46.23
2022-08-12T05:12:58.995Z,46.52
2022-08-12T05:15:29.369Z,46.23
2022-08-12T05:17:55.715Z,45.79
2022-08-12T05:20:21.853Z,46.52
2022-08-12T05:22:47.815Z,47.03
2022-08-12T05:25:13.773Z,47.09
2022-08-12T05:27:39.772Z,46.26
2022-08-12T05:30:21.586Z,46.73
2022-08-12T05:32:47.597Z,46.49
2022-08-12T05:35:13.543Z,46.33
2022-08-12T05:37:39.583Z,48.30
2022-08-12T05:40:11.542Z,46.95
2022-08-12T05:42:37.708Z,45.07
2022-08-12T05:45:03.667Z,44.16
2022-08-12T05:47:40.643Z,43.71
2022-08-12T05:50:15.611Z,44.99
2022-08-12T05:52:41.780Z,44.00
2022-08-12T05:55:07.966Z,42.94
2022-08-12T05:57:35.887Z,42.25
2022-08-12T06:00:02.069Z,41.31
2022-08-12T06:02:28.025Z,41.59
2022-08-12T06:04:53.961Z,41.00
2022-08-12T06:07:58.962Z,40.98
2022-08-12T06:10:05.847Z,40.62
2022-08-12T06:12:31.829Z,40.92
2022-08-12T06:14:57.787Z,39.69
2022-08-12T06:17:23.753Z,40.07
2022-08-12T06:20:27.229Z,40.04
2022-08-12T06:22:35.745Z,40.03
2022-08-12T06:25:03.140Z,39.30
2022-08-12T06:27:29.111Z,38.64
2022-08-12T06:30:08.907Z,38.54
2022-08-12T06:32:42.835Z,39.73
2022-08-12T06:35:25.222Z,40.34
2022-08-12T06:38:04.011Z,39.87
2022-08-12T06:40:29.967Z,38.63
2022-08-12T06:42:57.083Z,38.62
2022-08-12T06:45:23.093Z,38.98
2022-08-12T06:47:49.089Z,38.48
2022-08-12T06:50:15.054Z,38.82
2022-08-12T06:52:41.084Z,39.20
2022-08-12T06:55:07.173Z,39.81
2022-08-12T06:58:06.399Z,39.81
2022-08-12T07:00:19.097Z,39.83
2022-08-12T07:02:45.425Z,41.34
2022-08-12T07:05:11.394Z,40.85
2022-08-12T07:07:37.380Z,39.72
2022-08-12T07:10:07.056Z,39.54
2022-08-12T07:12:33.854Z,38.71
2022-08-12T07:14:59.847Z,39.86
2022-08-12T07:17:25.824Z,39.96
2022-08-12T07:19:51.893Z,39.93
2022-08-12T07:22:18.032Z,40.81
2022-08-12T07:24:43.983Z,40.11
2022-08-12T07:27:09.925Z,40.66
2022-08-12T07:30:00.013Z,40.08
2022-08-12T07:32:21.829Z,40.91
2022-08-12T07:34:47.812Z,41.25
2022-08-12T07:37:13.766Z,40.66
2022-08-12T07:39:50.703Z,40.75
2022-08-12T07:42:26.532Z,41.82
2022-08-12T07:44:52.570Z,41.69
2022-08-12T07:47:18.536Z,41.51
2022-08-12T07:50:05.404Z,41.17
2022-08-12T07:52:30.446Z,40.53
2022-08-12T07:54:56.416Z,39.58
2022-08-12T07:57:22.355Z,39.98
2022-08-12T07:59:48.314Z,40.36
2022-08-12T08:02:18.794Z,38.21
2022-08-12T08:04:48.465Z,38.74
2022-08-12T08:07:14.435Z,39.47
2022-08-12T08:09:40.433Z,39.58
2022-08-12T08:12:06.377Z,37.91
2022-08-12T08:14:32.330Z,37.22
2022-08-12T08:16:58.328Z,37.93
2022-08-12T08:19:24.300Z,39.48
2022-08-12T08:21:50.262Z,39.28
2022-08-12T08:24:16.244Z,39.34
2022-08-12T08:26:42.213Z,39.95
2022-08-12T08:29:08.144Z,42.10
2022-08-12T08:31:34.133Z,41.34
2022-08-12T08:34:47.342Z,40.03
2022-08-12T08:36:46.074Z,38.68
2022-08-12T08:39:12.147Z,38.43
2022-08-12T08:42:13.982Z,37.86
2022-08-12T08:44:24.131Z,37.64
2022-08-12T08:46:50.061Z,38.94
2022-08-12T08:49:16.031Z,38.28
2022-08-12T08:51:42.009Z,39.49
2022-08-12T08:54:07.958Z,38.15
2022-08-12T08:56:33.912Z,37.47
2022-08-12T08:58:59.908Z,38.39
2022-08-12T09:01:26.522Z,36.99
2022-08-12T09:05:08.166Z,38.09
2022-08-12T09:06:53.440Z,36.27
2022-08-12T09:09:20.073Z,36.85
2022-08-12T09:12:11.061Z,36.63
2022-08-12T09:14:31.990Z,36.69
2022-08-12T09:16:58.644Z,36.96
2022-08-12T09:19:27.454Z,36.20
2022-08-12T09:21:54.086Z,36.03
2022-08-12T09:24:21.306Z,35.79
2022-08-12T09:26:48.029Z,35.94
2022-08-12T09:29:15.245Z,36.65
2022-08-12T09:32:07.437Z,36.19
2022-08-12T09:34:33.425Z,37.91
2022-08-12T09:37:03.048Z,35.58
2022-08-12T09:40:04.395Z,36.73
2022-08-12T09:42:38.803Z,35.25
2022-08-12T09:45:19.102Z,34.86
2022-08-12T09:47:57.045Z,34.41
2022-08-12T09:50:25.860Z,36.47
2022-08-12T09:52:54.348Z,36.29
2022-08-12T09:56:07.239Z,34.46
2022-08-12T09:58:59.155Z,35.32
2022-08-12T10:00:54.629Z,34.26
2022-08-12T10:03:32.315Z,34.29
2022-08-12T10:06:27.994Z,34.55
2022-08-12T10:08:45.019Z,35.60
2022-08-12T10:11:20.627Z,35.50
2022-08-12T10:13:46.771Z,37.29
2022-08-12T10:16:18.794Z,36.29
2022-08-12T10:18:52.251Z,36.89
2022-08-12T10:21:18.707Z,38.61
2022-08-12T10:23:46.065Z,36.07
2022-08-12T10:26:33.943Z,36.55
2022-08-12T10:29:01.856Z,37.26
2022-08-12T10:31:29.241Z,35.66
2022-08-12T10:34:26.294Z,35.91
2022-08-12T10:36:52.896Z,35.48
2022-08-12T10:40:01.309Z,35.53
2022-08-12T10:42:04.902Z,35.38
2022-08-12T10:44:31.021Z,34.76
2022-08-12T10:46:57.104Z,34.35
2022-08-12T10:50:05.851Z,33.92
2022-08-12T10:52:47.165Z,35.72
2022-08-12T10:54:55.099Z,35.29
2022-08-12T10:58:13.301Z,34.41
2022-08-12T11:00:35.498Z,34.15
2022-08-12T11:04:28.131Z,34.04
2022-08-12T11:07:02.752Z,34.51
2022-08-12T11:08:36.481Z,34.20
2022-08-12T11:11:13.208Z,34.64
2022-08-12T11:13:46.302Z,35.26
2022-08-12T11:16:21.864Z,33.84
2022-08-12T11:18:48.688Z,34.11
2022-08-12T11:21:21.620Z,32.78
2022-08-12T11:23:53.659Z,31.19
2022-08-12T11:26:19.829Z,30.83
2022-08-12T11:28:59.375Z,31.63
2022-08-12T11:31:56.286Z,32.38
2022-08-12T11:34:52.979Z,30.93
2022-08-12T11:37:04.794Z,31.52
2022-08-12T11:40:02.882Z,31.23
2022-08-12T11:42:16.930Z,32.63
2022-08-12T11:44:51.819Z,31.42
2022-08-12T11:47:17.788Z,32.16
2022-08-12T11:49:49.816Z,33.31
2022-08-12T11:52:53.914Z,30.72
2022-08-12T11:55:03.979Z,31.36
2022-08-12T11:58:07.613Z,32.05
2022-08-12T12:03:01.958Z,31.68
2022-08-12T12:05:41.632Z,30.54
2022-08-12T12:08:38.697Z,31.27
2022-08-12T12:10:53.972Z,31.11
2022-08-12T12:13:22.871Z,32.07
2022-08-12T12:16:06.045Z,33.67
2022-08-12T12:18:32.034Z,33.08
2022-08-12T12:20:57.983Z,34.98
2022-08-12T12:23:29.298Z,34.70
2022-08-12T12:25:59.390Z,34.24
2022-08-12T12:28:36.865Z,35.65
2022-08-12T12:31:04.147Z,35.46
2022-08-12T12:33:57.335Z,33.37
2022-08-12T12:36:20.259Z,33.64
2022-08-12T12:38:50.227Z,33.74
2022-08-12T12:41:16.784Z,32.09
2022-08-12T12:43:47.567Z,31.49
2022-08-12T12:46:29.095Z,31.09
2022-08-12T12:48:55.216Z,28.90
2022-08-12T12:51:48.299Z,29.50
2022-08-12T12:54:09.875Z,29.43
2022-08-12T12:56:36.240Z,28.97
2022-08-12T12:59:02.337Z,28.73
2022-08-12T13:01:30.977Z,28.55
2022-08-12T13:04:02.196Z,28.36
2022-08-12T13:06:30.008Z,29.41
2022-08-12T13:08:56.310Z,29.38
2022-08-12T13:11:22.322Z,30.27
2022-08-12T13:14:07.277Z,31.22
2022-08-12T13:16:38.141Z,31.53
2022-08-12T13:19:10.114Z,31.19
2022-08-12T13:21:36.823Z,31.44
2022-08-12T13:24:10.315Z,31.88
2022-08-12T13:26:36.595Z,32.54
2022-08-12T13:29:03.521Z,32.68
2022-08-12T13:31:29.463Z,32.98
2022-08-12T13:34:32.000Z,34.62
2022-08-12T13:36:41.366Z,35.53
2022-08-12T13:39:07.558Z,35.12
2022-08-12T13:41:33.524Z,35.93
2022-08-12T13:43:59.495Z,36.48
2022-08-12T13:46:25.488Z,36.18
2022-08-12T13:48:51.467Z,34.48
2022-08-12T13:51:24.030Z,35.48
2022-08-12T13:53:57.605Z,34.88
2022-08-12T13:56:25.429Z,35.53
2022-08-12T13:58:57.526Z,34.65
2022-08-12T14:01:24.608Z,34.59
2022-08-12T14:03:51.975Z,35.19
2022-08-12T14:06:19.463Z,36.08
2022-08-12T14:08:45.556Z,38.65
2022-08-12T14:11:15.974Z,37.98
2022-08-12T14:14:06.197Z,38.93
2022-08-12T14:16:37.793Z,41.71
2022-08-12T14:19:24.208Z,41.78
2022-08-12T14:22:00.489Z,41.57
2022-08-12T14:24:30.801Z,42.06
2022-08-12T14:26:56.898Z,40.09
2022-08-12T14:29:38.187Z,39.01
2022-08-12T14:32:16.833Z,38.62
2022-08-12T14:34:44.177Z,38.95
2022-08-12T14:37:12.962Z,39.59
2022-08-12T14:39:56.220Z,41.89
2022-08-12T14:42:22.247Z,40.65
2022-08-12T14:44:59.287Z,40.63
2022-08-12T14:47:27.042Z,41.97
2022-08-12T14:50:41.597Z,42.31
2022-08-12T14:54:19.964Z,42.29
2022-08-12T14:58:13.246Z,45.12
2022-08-12T15:00:39.568Z,45.62
2022-08-12T15:03:06.298Z,50.00
2022-08-12T15:06:38.757Z,52.83
2022-08-12T15:08:22.625Z,53.39
2022-08-12T15:10:53.783Z,52.71
2022-08-12T15:13:20.014Z,54.56
2022-08-12T15:15:47.413Z,51.65
2022-08-12T15:18:13.655Z,51.95
2022-08-12T15:20:39.706Z,51.67
2022-08-12T15:23:05.934Z,53.77
2022-08-12T15:25:47.480Z,53.37
2022-08-12T15:28:21.298Z,54.28
2022-08-12T15:30:47.703Z,54.46
2022-08-12T15:33:18.729Z,54.94
2022-08-12T15:35:52.858Z,54.05
2022-08-12T15:38:20.295Z,54.33
2022-08-12T15:40:46.738Z,54.90
2022-08-12T15:43:14.309Z,54.96
2022-08-12T15:46:00.277Z,56.54
2022-08-12T15:48:26.547Z,55.08
2022-08-12T15:50:56.497Z,55.58
2022-08-12T15:53:23.097Z,55.52
2022-08-12T15:55:53.047Z,55.70
2022-08-12T15:58:23.339Z,55.25
2022-08-12T16:00:53.014Z,55.97
2022-08-12T16:03:25.603Z,56.50
2022-08-12T16:06:19.195Z,56.52
2022-08-12T16:08:38.996Z,56.25
2022-08-12T16:11:14.581Z,56.02
2022-08-12T16:13:44.218Z,56.44
2022-08-12T16:16:23.183Z,56.27
2022-08-12T16:18:50.531Z,56.15
2022-08-12T16:21:52.421Z,56.10
2022-08-12T16:24:02.480Z,55.17
2022-08-12T16:26:32.930Z,56.05
2022-08-12T16:29:14.486Z,57.31
2022-08-12T16:31:40.878Z,56.61
2022-08-12T16:34:10.683Z,57.87
2022-08-12T16:36:36.911Z,56.95
2022-08-12T16:39:05.344Z,55.68
2022-08-12T16:41:38.006Z,55.86
2022-08-12T16:44:06.142Z,55.17
2022-08-12T16:46:34.174Z,57.35
2022-08-12T16:49:08.795Z,57.67
2022-08-12T16:51:40.433Z,57.64
2022-08-12T16:54:10.716Z,57.76
2022-08-12T16:56:40.396Z,57.15
2022-08-12T16:59:20.434Z,56.63
2022-08-12T17:01:46.572Z,55.13
2022-08-12T17:04:12.666Z,55.00
2022-08-12T17:06:38.619Z,54.83
2022-08-12T17:09:08.378Z,55.18
2022-08-12T17:11:43.489Z,54.96
2022-08-12T17:14:09.578Z,55.85
2022-08-12T17:16:35.533Z,55.60
2022-08-12T17:19:08.947Z,56.79
2022-08-12T17:21:40.720Z,55.97
2022-08-12T17:24:07.842Z,56.31
2022-08-12T17:26:34.532Z,57.40
2022-08-12T17:29:00.571Z,56.56
2022-08-12T17:31:53.183Z,56.67
2022-08-12T17:34:17.325Z,56.49
2022-08-12T17:36:44.476Z,57.02
2022-08-12T17:39:14.612Z,56.79
2022-08-12T17:41:56.382Z,57.11
2022-08-12T17:44:23.499Z,56.44
2022-08-12T17:46:53.971Z,56.68
2022-08-12T17:50:01.879Z,56.76
2022-08-12T17:52:06.065Z,56.98
2022-08-12T17:54:32.799Z,57.60
2022-08-12T17:56:58.905Z,56.69
2022-08-12T17:59:47.535Z,57.10
2022-08-12T18:02:13.504Z,58.65
2022-08-12T18:04:39.621Z,59.41
2022-08-12T18:07:25.561Z,58.16
2022-08-12T18:09:54.709Z,57.56
2022-08-12T18:12:24.436Z,57.49
2022-08-12T18:14:53.710Z,56.89
2022-08-12T18:17:19.759Z,57.94
2022-08-12T18:20:05.360Z,57.96
2022-08-12T18:22:33.577Z,58.27
2022-08-12T18:25:02.211Z,57.29
2022-08-12T18:27:44.107Z,57.50
2022-08-12T18:30:11.230Z,58.36
2022-08-12T18:32:59.005Z,58.76
2022-08-12T18:35:29.931Z,57.96
2022-08-12T18:38:09.122Z,57.28
2022-08-12T18:40:36.040Z,57.07
2022-08-12T18:43:03.731Z,56.96
2022-08-12T18:45:31.575Z,56.97
2022-08-12T18:48:13.402Z,56.96
2022-08-12T18:50:48.677Z,57.87
2022-08-12T18:54:04.917Z,57.94
2022-08-12T18:56:01.937Z,58.05
2022-08-12T18:58:30.144Z,57.59
2022-08-12T19:00:56.454Z,57.51
2022-08-12T19:03:39.047Z,57.04
2022-08-12T19:06:05.976Z,57.25
2022-08-12T19:08:32.225Z,57.00
2022-08-12T19:10:58.168Z,57.19
2022-08-12T19:13:25.156Z,57.88
2022-08-12T19:16:01.513Z,57.85
2022-08-12T19:18:29.151Z,57.36
2022-08-12T19:20:56.227Z,57.87
2022-08-12T19:23:22.188Z,57.72
2022-08-12T19:26:00.982Z,57.48
2022-08-12T19:28:30.239Z,58.10
2022-08-12T19:31:01.052Z,57.81
2022-08-12T19:33:27.002Z,57.47
2022-08-12T19:36:07.951Z,58.09
2022-08-12T19:38:46.843Z,57.95
2022-08-12T19:41:22.820Z,58.20
2022-08-12T19:44:00.304Z,58.35
2022-08-12T19:46:35.217Z,58.15
2022-08-12T19:49:04.128Z,58.72
2022-08-12T19:51:30.351Z,57.95
2022-08-12T19:53:59.365Z,57.92
2022-08-12T19:56:25.358Z,58.71
2022-08-12T19:58:51.308Z,58.52
2022-08-12T20:01:17.245Z,59.02
2022-08-12T20:03:43.268Z,58.53
2022-08-12T20:06:13.819Z,58.76
2022-08-12T20:08:49.206Z,59.84
2022-08-12T20:12:13.915Z,60.30
2022-08-12T20:14:08.171Z,59.68
2022-08-12T20:16:53.193Z,59.93
2022-08-12T20:19:20.135Z,59.23
2022-08-12T20:21:46.145Z,59.29
2022-08-12T20:24:12.086Z,58.82
2022-08-12T20:26:40.071Z,58.67
2022-08-12T20:29:06.071Z,59.54
2022-08-12T20:31:32.007Z,59.28
2022-08-12T20:33:58.225Z,58.53
2022-08-12T20:36:40.807Z,58.57
2022-08-12T20:39:37.508Z,58.53
2022-08-12T20:41:54.036Z,58.13
2022-08-12T20:44:19.979Z,59.35
2022-08-12T20:46:46.412Z,58.66
2022-08-12T20:49:17.582Z,58.18
2022-08-12T20:51:55.080Z,57.88
2022-08-12T20:54:21.484Z,58.22
2022-08-12T20:56:47.756Z,57.92
2022-08-12T20:59:14.683Z,58.10
2022-08-12T21:01:48.388Z,58.67
2022-08-12T21:04:14.811Z,57.43
2022-08-12T21:06:41.974Z,57.28
2022-08-12T21:09:07.969Z,57.15
2022-08-12T21:11:35.463Z,57.22
2022-08-12T21:14:03.649Z,56.88
2022-08-12T21:16:31.581Z,56.92
2022-08-12T21:19:08.039Z,57.40
2022-08-12T21:21:40.687Z,57.36
2022-08-12T21:24:16.404Z,57.70
2022-08-12T21:26:42.415Z,56.96
2022-08-12T21:29:19.426Z,57.22
2022-08-12T21:32:40.537Z,56.74
2022-08-12T21:34:31.334Z,56.82
2022-08-12T21:36:57.334Z,56.72
2022-08-12T21:39:26.778Z,57.11
2022-08-12T21:42:02.502Z,56.40
2022-08-12T21:45:47.898Z,56.88
2022-08-12T21:47:20.762Z,57.29
2022-08-12T21:49:55.397Z,56.83
2022-08-12T21:52:34.479Z,56.48
2022-08-12T21:55:00.998Z,56.21
2022-08-12T21:57:26.930Z,56.44
2022-08-12T21:59:54.026Z,57.22
2022-08-12T22:02:20.114Z,56.98
2022-08-12T22:04:49.678Z,57.25
2022-08-12T22:07:18.788Z,56.54
2022-08-12T22:09:44.958Z,56.11
2022-08-12T22:12:11.597Z,56.82
2022-08-12T22:14:37.950Z,56.39
2022-08-12T22:17:06.425Z,56.37
2022-08-12T22:19:33.766Z,56.51
2022-08-12T22:22:04.689Z,56.50
2022-08-12T22:24:30.978Z,56.10
2022-08-12T22:26:57.112Z,56.10
2022-08-12T22:29:23.133Z,56.68
2022-08-12T22:31:49.093Z,56.33
2022-08-12T22:34:18.076Z,56.28
2022-08-12T22:36:44.676Z,56.30
2022-08-12T22:39:11.647Z,56.10
2022-08-12T22:41:42.509Z,56.28
2022-08-12T22:44:08.727Z,56.56
2022-08-12T22:46:34.703Z,57.42
2022-08-12T22:49:00.656Z,57.08
2022-08-12T22:51:27.171Z,58.33
2022-08-12T22:54:04.135Z,57.70
2022-08-12T22:56:30.874Z,57.45
2022-08-12T22:58:57.472Z,57.25
2022-08-12T23:01:52.376Z,56.76
2022-08-12T23:04:12.831Z,56.07
2022-08-12T23:06:39.102Z,56.45
2022-08-12T23:09:05.438Z,56.43
2022-08-12T23:11:33.881Z,56.73
2022-08-12T23:14:06.610Z,56.94
2022-08-12T23:16:33.375Z,57.10
2022-08-12T23:18:59.902Z,56.56
2022-08-12T23:21:40.245Z,56.58
2022-08-12T23:24:13.793Z,56.61
2022-08-12T23:26:43.042Z,56.07
2022-08-12T23:29:12.834Z,56.23
2022-08-12T23:32:03.233Z,55.88
2022-08-12T23:34:31.939Z,56.10
2022-08-12T23:36:58.055Z,55.92
2022-08-12T23:40:13.678Z,56.13
2022-08-12T23:42:18.285Z,56.86
2022-08-12T23:44:45.333Z,56.89
2022-08-12T23:47:11.320Z,56.42
2022-08-12T23:49:57.025Z,56.10
2022-08-12T23:52:24.189Z,56.85
2022-08-12T23:55:23.705Z,57.10
2022-08-12T23:57:51.127Z,56.87
